createdAt,value
2019-03-23T00:00:41.057Z,13.63
2019-03-23T00:03:10.494Z,12.67
2019-03-23T00:05:42.064Z,12.27
2019-03-23T00:08:08.670Z,12.77
2019-03-23T00:10:34.931Z,11.97
2019-03-23T00:13:02.278Z,11.20
2019-03-23T00:15:30.994Z,11.97
2019-03-23T00:17:58.106Z,11.20
2019-03-23T00:20:33.770Z,11.33
2019-03-23T00:23:03.273Z,12.03
2019-03-23T00:25:36.577Z,11.20
2019-03-23T00:28:04.948Z,11.20
2019-03-23T00:30:31.453Z,10.57
2019-03-23T00:33:01.533Z,10.57
2019-03-23T00:35:28.582Z,10.97
2019-03-23T00:38:01.899Z,10.33
2019-03-23T00:40:28.934Z,11.03
2019-03-23T00:42:55.406Z,10.13
2019-03-23T00:45:24.617Z,11.77
2019-03-23T00:50:50.226Z,11.87
2019-03-23T00:53:23.118Z,11.63
2019-03-23T00:55:52.173Z,11.47
2019-03-23T00:58:30.874Z,10.50
2019-03-23T01:01:03.058Z,11.67
2019-03-23T01:03:37.981Z,12.10
2019-03-23T01:06:06.489Z,11.50
2019-03-23T01:08:36.115Z,12.27
2019-03-23T01:11:05.686Z,10.90
2019-03-23T01:13:37.908Z,10.67
2019-03-23T01:16:09.745Z,9.43
2019-03-23T01:18:40.964Z,10.45
2019-03-23T01:21:07.348Z,9.33
2019-03-23T01:23:34.006Z,9.77
2019-03-23T01:26:04.183Z,8.33
2019-03-23T01:28:37.977Z,9.13
2019-03-23T01:31:07.766Z,8.73
2019-03-23T01:33:34.980Z,8.10
2019-03-23T01:36:01.606Z,9.03
2019-03-23T01:38:33.291Z,9.60
2019-03-23T01:41:03.175Z,9.43
2019-03-23T01:43:35.226Z,8.90
2019-03-23T01:46:02.440Z,8.97
2019-03-23T01:48:37.139Z,9.10
2019-03-23T01:51:12.392Z,11.33
2019-03-23T01:53:47.738Z,9.43
2019-03-23T01:56:16.548Z,8.90
2019-03-23T01:58:47.939Z,11.17
2019-03-23T02:01:35.866Z,10.70
2019-03-23T02:04:08.483Z,9.03
2019-03-23T02:06:35.067Z,9.25
2019-03-23T02:09:07.221Z,9.45
2019-03-23T02:11:37.040Z,8.83
2019-03-23T02:14:03.464Z,7.83
2019-03-23T02:16:30.133Z,10.57
2019-03-23T02:19:05.575Z,9.27
2019-03-23T02:21:34.227Z,8.40
2019-03-23T02:24:05.431Z,10.60
2019-03-23T02:26:33.894Z,10.47
2019-03-23T02:29:03.440Z,11.70
2019-03-23T02:31:29.677Z,13.10
2019-03-23T02:34:03.644Z,12.80
2019-03-23T02:36:32.658Z,12.13
2019-03-23T02:39:04.278Z,11.67
2019-03-23T02:41:41.215Z,11.65
2019-03-23T02:44:21.262Z,11.17
2019-03-23T02:46:50.639Z,11.45
2019-03-23T02:49:18.745Z,10.93
2019-03-23T02:51:50.386Z,11.77
2019-03-23T02:54:22.639Z,11.37
2019-03-23T02:56:48.005Z,10.17
2019-03-23T02:59:17.715Z,12.18
2019-03-23T03:01:52.725Z,12.27
2019-03-23T03:04:20.920Z,12.33
2019-03-23T03:06:47.164Z,15.97
2019-03-23T03:09:13.421Z,16.73
2019-03-23T03:11:40.888Z,15.87
2019-03-23T03:14:09.835Z,19.33
2019-03-23T03:16:36.959Z,16.30
2019-03-23T03:19:06.068Z,16.90
2019-03-23T03:21:38.095Z,16.03
2019-03-23T03:24:14.285Z,15.10
2019-03-23T03:26:44.290Z,14.67
2019-03-23T03:29:13.360Z,14.07
2019-03-23T03:31:39.610Z,12.63
2019-03-23T03:34:08.650Z,13.30
2019-03-23T03:36:37.512Z,11.97
2019-03-23T03:39:08.172Z,11.57
2019-03-23T03:41:43.325Z,12.00
2019-03-23T03:44:15.199Z,12.17
2019-03-23T03:46:44.205Z,13.00
2019-03-23T03:49:16.937Z,13.10
2019-03-23T03:51:45.078Z,13.83
2019-03-23T03:54:18.182Z,15.87
2019-03-23T03:56:48.028Z,13.97
2019-03-23T03:59:13.209Z,14.10
2019-03-23T04:01:42.387Z,13.50
2019-03-23T04:04:12.226Z,13.83
2019-03-23T04:06:39.557Z,11.90
2019-03-23T04:09:10.346Z,11.90
2019-03-23T04:11:37.310Z,11.70
2019-03-23T04:14:04.389Z,13.07
2019-03-23T04:16:33.600Z,11.63
2019-03-23T04:19:04.305Z,11.66
2019-03-23T04:21:31.474Z,10.13
2019-03-23T04:24:07.872Z,10.70
2019-03-23T04:26:39.316Z,9.50
2019-03-23T04:29:08.510Z,10.57
2019-03-23T04:31:37.004Z,10.72
2019-03-23T04:34:03.323Z,10.80
2019-03-23T04:36:33.105Z,10.60
2019-03-23T04:39:03.326Z,10.30
2019-03-23T04:41:39.312Z,10.97
2019-03-23T04:44:11.002Z,11.47
2019-03-23T04:46:40.109Z,13.47
2019-03-23T04:49:15.610Z,12.77
2019-03-23T04:51:43.402Z,11.20
2019-03-23T04:54:26.257Z,10.90
2019-03-23T04:56:58.787Z,12.07
2019-03-23T04:59:29.650Z,11.50
2019-03-23T05:02:02.835Z,13.20
2019-03-23T05:04:30.186Z,12.77
2019-03-23T05:06:59.221Z,12.73
2019-03-23T05:09:35.782Z,11.30
2019-03-23T05:12:06.132Z,11.63
2019-03-23T05:14:33.257Z,11.80
2019-03-23T05:17:02.739Z,11.13
2019-03-23T05:19:32.198Z,13.70
2019-03-23T05:21:59.234Z,13.70
2019-03-23T05:24:28.866Z,14.77
2019-03-23T05:27:01.112Z,15.70
2019-03-23T05:29:26.974Z,13.13
2019-03-23T05:31:58.938Z,12.57
2019-03-23T05:34:30.935Z,11.80
2019-03-23T05:36:57.940Z,14.63
2019-03-23T05:39:25.194Z,13.97
2019-03-23T05:41:58.215Z,11.77
2019-03-23T05:44:28.097Z,11.70
2019-03-23T05:46:56.907Z,13.93
2019-03-23T05:49:26.800Z,11.80
2019-03-23T05:51:53.943Z,13.20
2019-03-23T05:54:22.947Z,13.13
2019-03-23T05:56:59.681Z,12.37
2019-03-23T05:59:26.219Z,14.73
2019-03-23T06:01:55.305Z,18.87
2019-03-23T06:04:21.556Z,17.30
2019-03-23T06:06:47.945Z,16.30
2019-03-23T06:09:14.617Z,15.20
2019-03-23T06:11:43.507Z,15.73
2019-03-23T06:14:09.852Z,16.87
2019-03-23T06:16:36.156Z,14.57
2019-03-23T06:19:02.599Z,14.23
2019-03-23T06:21:29.301Z,14.47
2019-03-23T06:24:11.293Z,14.10
2019-03-23T06:26:42.825Z,13.93
2019-03-23T06:29:11.857Z,15.45
2019-03-23T06:31:38.192Z,15.10
2019-03-23T06:34:07.497Z,16.17
2019-03-23T06:36:33.884Z,14.40
2019-03-23T06:39:05.366Z,13.83
2019-03-23T06:41:31.991Z,13.37
2019-03-23T06:43:58.615Z,13.53
2019-03-23T06:46:25.359Z,13.77
2019-03-23T06:48:55.424Z,14.63
2019-03-23T06:51:41.841Z,15.10
2019-03-23T06:54:10.885Z,15.20
2019-03-23T06:56:37.431Z,15.88
2019-03-23T06:59:07.354Z,15.77
2019-03-23T07:01:33.571Z,14.63
2019-03-23T07:06:48.551Z,13.93
2019-03-23T07:09:23.717Z,12.33
2019-03-23T07:11:59.555Z,12.67
2019-03-23T07:14:29.519Z,11.87
2019-03-23T07:16:59.890Z,11.40
2019-03-23T07:19:27.972Z,10.43
2019-03-23T07:21:55.249Z,10.33
2019-03-23T07:24:28.164Z,9.87
2019-03-23T07:27:00.504Z,8.90
2019-03-23T07:29:27.578Z,9.10
2019-03-23T07:31:54.098Z,9.10
2019-03-23T07:34:22.872Z,8.90
2019-03-23T07:36:51.130Z,8.13
2019-03-23T07:39:27.231Z,8.33
2019-03-23T07:41:54.665Z,9.77
2019-03-23T07:44:24.607Z,10.53
2019-03-23T07:46:54.009Z,10.40
2019-03-23T07:49:29.405Z,9.00
2019-03-23T07:51:56.478Z,9.27
2019-03-23T07:54:23.798Z,9.15
2019-03-23T07:56:54.383Z,9.23
2019-03-23T07:59:25.570Z,8.95
2019-03-23T08:01:52.689Z,8.50
2019-03-23T08:04:21.669Z,9.90
2019-03-23T08:06:51.943Z,9.40
2019-03-23T08:09:25.230Z,8.90
2019-03-23T08:11:59.933Z,9.27
2019-03-23T08:14:26.181Z,6.97
2019-03-23T08:16:55.730Z,6.77
2019-03-23T08:19:24.489Z,9.00
2019-03-23T08:21:58.685Z,14.75
2019-03-23T08:24:31.460Z,17.07
2019-03-23T08:27:03.150Z,19.75
2019-03-23T08:29:33.500Z,18.12
2019-03-23T08:32:08.750Z,18.95
2019-03-23T08:34:34.954Z,17.07
2019-03-23T08:37:02.168Z,14.78
2019-03-23T08:39:30.468Z,12.43
2019-03-23T08:41:56.874Z,11.28
2019-03-23T08:44:31.637Z,13.18
2019-03-23T08:46:57.906Z,10.82
2019-03-23T08:49:32.402Z,14.40
2019-03-23T08:52:00.676Z,15.75
2019-03-23T08:54:27.038Z,12.73
2019-03-23T08:56:53.298Z,13.08
2019-03-23T08:59:19.556Z,13.75
2019-03-23T09:01:47.731Z,15.00
2019-03-23T09:04:14.096Z,14.03
2019-03-23T09:06:42.859Z,15.70
2019-03-23T09:09:11.556Z,20.60
2019-03-23T09:11:38.093Z,21.48
2019-03-23T09:14:04.363Z,24.98
2019-03-23T09:16:30.759Z,23.45
2019-03-23T09:18:57.139Z,24.85
2019-03-23T09:21:23.759Z,27.62
2019-03-23T09:23:52.588Z,26.95
2019-03-23T09:26:21.475Z,23.57
2019-03-23T09:28:51.189Z,19.73
2019-03-23T09:31:17.515Z,12.13
2019-03-23T09:33:46.963Z,14.38
2019-03-23T09:36:13.344Z,9.00
2019-03-23T09:38:44.296Z,13.30
2019-03-23T09:41:11.476Z,13.50
2019-03-23T09:43:38.403Z,7.55
2019-03-23T09:46:05.066Z,6.83
2019-03-23T09:48:37.050Z,12.20
2019-03-23T09:51:03.535Z,16.05
2019-03-23T09:53:31.798Z,17.10
2019-03-23T09:56:01.028Z,9.33
2019-03-23T09:58:30.535Z,11.48
2019-03-23T10:00:56.966Z,14.47
2019-03-23T10:03:23.891Z,6.78
2019-03-23T10:05:52.664Z,19.35
2019-03-23T10:08:22.741Z,19.80
2019-03-23T10:10:50.995Z,18.30
2019-03-23T10:13:17.930Z,11.80
2019-03-23T10:15:48.202Z,11.33
2019-03-23T10:18:20.634Z,10.00
2019-03-23T10:20:50.725Z,15.95
2019-03-23T10:23:21.770Z,16.55
2019-03-23T10:25:48.835Z,15.25
2019-03-23T10:28:15.141Z,16.17
2019-03-23T10:30:48.989Z,6.75
2019-03-23T10:33:17.722Z,9.43
2019-03-23T10:35:46.120Z,7.12
2019-03-23T10:38:13.150Z,9.43
2019-03-23T10:40:39.695Z,8.23
2019-03-23T10:43:06.302Z,8.15
2019-03-23T10:45:43.851Z,8.70
2019-03-23T10:48:03.881Z,11.53
2019-03-23T10:50:32.870Z,22.72
2019-03-23T10:53:01.752Z,20.80
2019-03-23T10:55:28.436Z,12.10
2019-03-23T10:58:02.768Z,16.12
2019-03-23T11:00:29.167Z,10.23
2019-03-23T11:03:04.396Z,13.88
2019-03-23T11:05:37.978Z,16.55
2019-03-23T11:08:04.400Z,12.33
2019-03-23T11:10:41.717Z,6.97
2019-03-23T11:13:06.508Z,24.75
2019-03-23T11:15:37.670Z,14.53
2019-03-23T11:18:07.670Z,10.38
2019-03-23T11:20:39.693Z,9.95
2019-03-23T11:23:09.299Z,10.82
2019-03-23T11:25:35.733Z,7.92
2019-03-23T11:28:06.790Z,8.08
2019-03-23T11:30:39.148Z,13.85
2019-03-23T11:33:03.260Z,12.15
2019-03-23T11:35:35.011Z,7.53
2019-03-23T11:38:06.348Z,10.25
2019-03-23T11:40:32.959Z,14.45
2019-03-23T11:43:00.806Z,13.60
2019-03-23T11:45:30.902Z,13.30
2019-03-23T11:47:58.243Z,16.12
2019-03-23T11:50:24.387Z,17.25
2019-03-23T11:52:53.499Z,12.43
2019-03-23T11:55:19.665Z,15.72
2019-03-23T11:57:46.262Z,20.27
2019-03-23T12:00:15.682Z,14.30
2019-03-23T12:02:47.296Z,25.27
2019-03-23T12:05:14.619Z,17.77
2019-03-23T12:07:41.471Z,23.10
2019-03-23T12:10:12.044Z,19.60
2019-03-23T12:12:38.271Z,15.28
2019-03-23T12:15:10.236Z,18.23
2019-03-23T12:17:36.711Z,17.75
2019-03-23T12:20:11.848Z,20.57
2019-03-23T12:22:38.175Z,13.13
2019-03-23T12:25:04.755Z,16.97
2019-03-23T12:27:41.332Z,34.95
2019-03-23T12:30:15.816Z,30.82
2019-03-23T12:32:42.572Z,21.57
2019-03-23T12:35:09.130Z,21.02
2019-03-23T12:37:35.445Z,26.00
2019-03-23T12:40:02.074Z,22.60
2019-03-23T12:42:28.979Z,16.37
2019-03-23T12:44:59.511Z,20.92
2019-03-23T12:47:25.795Z,23.05
2019-03-23T12:49:54.616Z,31.77
2019-03-23T12:52:20.977Z,22.80
2019-03-23T12:54:50.076Z,25.12
2019-03-23T12:57:22.417Z,20.85
2019-03-23T12:59:48.882Z,25.95
2019-03-23T13:02:15.217Z,28.60
2019-03-23T13:04:44.225Z,27.33
2019-03-23T13:07:17.510Z,30.45
2019-03-23T13:09:44.664Z,27.27
2019-03-23T13:12:11.091Z,30.48
2019-03-23T13:14:38.378Z,31.33
2019-03-23T13:17:07.777Z,34.53
2019-03-23T13:19:35.220Z,25.40
2019-03-23T13:22:01.665Z,26.00
2019-03-23T13:24:28.662Z,39.25
2019-03-23T13:26:54.846Z,29.48
2019-03-23T13:29:28.336Z,24.15
2019-03-23T13:31:57.311Z,21.52
2019-03-23T13:34:31.776Z,18.90
2019-03-23T13:36:59.836Z,26.45
2019-03-23T13:39:26.090Z,32.13
2019-03-23T13:41:52.329Z,29.37
2019-03-23T13:44:39.788Z,30.20
2019-03-23T13:47:06.182Z,32.15
2019-03-23T13:49:32.399Z,36.13
2019-03-23T13:51:59.086Z,34.90
2019-03-23T13:54:25.963Z,28.73
2019-03-23T13:56:52.334Z,35.55
2019-03-23T13:59:18.740Z,28.80
2019-03-23T14:01:49.493Z,32.75
2019-03-23T14:04:16.637Z,31.40
2019-03-23T14:06:43.207Z,32.78
2019-03-23T14:09:13.321Z,32.58
2019-03-23T14:11:39.553Z,31.05
2019-03-23T14:14:06.034Z,29.00
2019-03-23T14:16:32.301Z,24.82
2019-03-23T14:18:58.913Z,21.57
2019-03-23T14:21:27.712Z,30.75
2019-03-23T14:23:57.188Z,36.13
2019-03-23T14:26:23.647Z,31.82
2019-03-23T14:28:49.889Z,32.83
2019-03-23T14:31:16.113Z,28.65
2019-03-23T14:33:42.463Z,25.65
2019-03-23T14:36:11.980Z,23.25
2019-03-23T14:38:38.334Z,21.95
2019-03-23T14:41:05.783Z,33.05
2019-03-23T14:43:32.472Z,31.93
2019-03-23T14:45:59.318Z,30.17
2019-03-23T14:48:31.036Z,30.60
2019-03-23T14:50:57.258Z,27.57
2019-03-23T14:53:25.462Z,23.90
2019-03-23T14:55:52.205Z,25.75
2019-03-23T14:58:20.862Z,31.00
2019-03-23T15:00:47.234Z,30.30
2019-03-23T15:03:15.953Z,30.05
2019-03-23T15:05:42.291Z,23.22
2019-03-23T15:08:11.311Z,21.25
2019-03-23T15:10:37.988Z,23.73
2019-03-23T15:13:04.429Z,20.12
2019-03-23T15:15:30.908Z,26.48
2019-03-23T15:18:03.829Z,22.17
2019-03-23T15:20:28.212Z,25.00
2019-03-23T15:22:57.111Z,25.15
2019-03-23T15:25:23.897Z,29.72
2019-03-23T15:27:53.906Z,29.77
2019-03-23T15:30:19.400Z,26.00
2019-03-23T15:32:45.829Z,24.02
2019-03-23T15:35:14.630Z,23.07
2019-03-23T15:37:40.945Z,34.63
2019-03-23T15:40:08.467Z,32.83
2019-03-23T15:42:35.583Z,30.70
2019-03-23T15:45:06.478Z,28.55
2019-03-23T15:47:32.917Z,28.05
2019-03-23T15:49:59.967Z,29.87
2019-03-23T15:52:32.106Z,30.72
2019-03-23T15:55:07.435Z,26.40
2019-03-23T15:57:38.420Z,28.05
2019-03-23T16:00:08.026Z,25.02
2019-03-23T16:02:34.540Z,26.57
2019-03-23T16:05:04.625Z,27.52
2019-03-23T16:07:30.911Z,29.30
2019-03-23T16:09:57.160Z,32.35
2019-03-23T16:12:34.512Z,28.45
2019-03-23T16:14:56.420Z,25.92
2019-03-23T16:17:27.852Z,30.80
2019-03-23T16:19:55.946Z,29.07
2019-03-23T16:22:30.941Z,23.57
2019-03-23T16:24:57.613Z,28.17
2019-03-23T16:27:26.255Z,27.35
2019-03-23T16:29:52.462Z,28.05
2019-03-23T16:32:18.791Z,33.92
2019-03-23T16:34:45.278Z,31.87
2019-03-23T16:37:18.083Z,31.62
2019-03-23T16:39:45.093Z,26.50
2019-03-23T16:42:12.419Z,25.60
2019-03-23T16:44:38.656Z,36.15
2019-03-23T16:47:11.395Z,32.80
2019-03-23T16:49:48.483Z,33.28
2019-03-23T16:52:21.792Z,36.83
2019-03-23T16:54:49.990Z,30.68
2019-03-23T16:57:18.245Z,27.30
2019-03-23T16:59:53.222Z,25.03
2019-03-23T17:02:22.420Z,23.12
2019-03-23T17:04:49.489Z,24.35
2019-03-23T17:07:18.722Z,23.40
2019-03-23T17:09:47.904Z,22.02
2019-03-23T17:12:14.796Z,20.55
2019-03-23T17:14:41.772Z,20.48
2019-03-23T17:17:12.601Z,22.55
2019-03-23T17:19:39.089Z,26.55
2019-03-23T17:22:06.507Z,37.58
2019-03-23T17:24:35.798Z,35.68
2019-03-23T17:27:09.398Z,35.68
2019-03-23T17:29:51.222Z,38.17
2019-03-23T17:32:21.435Z,38.80
2019-03-23T17:34:52.879Z,37.10
2019-03-23T17:37:20.091Z,33.00
2019-03-23T17:39:55.460Z,33.33
2019-03-23T17:42:32.595Z,32.00
2019-03-23T17:44:59.960Z,35.92
2019-03-23T17:47:27.111Z,33.83
2019-03-23T17:49:54.481Z,32.35
2019-03-23T17:52:21.477Z,30.62
2019-03-23T17:54:51.181Z,29.55
2019-03-23T17:57:24.704Z,29.77
2019-03-23T17:59:48.725Z,28.47
2019-03-23T18:02:20.664Z,27.52
2019-03-23T18:04:53.280Z,25.17
2019-03-23T18:07:20.212Z,24.60
2019-03-23T18:09:46.539Z,22.20
2019-03-23T18:12:12.978Z,19.65
2019-03-23T18:14:39.452Z,16.85
2019-03-23T18:17:05.650Z,14.93
2019-03-23T18:19:32.860Z,15.48
2019-03-23T18:21:59.197Z,15.00
2019-03-23T18:24:25.525Z,14.78
2019-03-23T18:26:52.644Z,13.15
2019-03-23T18:29:24.433Z,12.23
2019-03-23T18:31:51.108Z,12.30
2019-03-23T18:34:17.977Z,14.33
2019-03-23T18:36:46.147Z,13.43
2019-03-23T18:39:12.843Z,16.35
2019-03-23T18:41:39.128Z,13.90
2019-03-23T18:44:15.772Z,12.35
2019-03-23T18:46:34.535Z,14.07
2019-03-23T18:49:06.942Z,12.53
2019-03-23T18:51:36.990Z,13.75
2019-03-23T18:54:05.754Z,15.05
2019-03-23T18:56:32.453Z,15.88
2019-03-23T18:58:59.086Z,15.70
2019-03-23T19:01:26.249Z,16.02
2019-03-23T19:03:52.588Z,14.63
2019-03-23T19:06:18.909Z,17.57
2019-03-23T19:08:45.592Z,28.02
2019-03-23T19:11:11.899Z,26.40
2019-03-23T19:13:38.436Z,26.00
2019-03-23T19:16:05.400Z,22.30
2019-03-23T19:18:31.821Z,19.70
2019-03-23T19:20:58.068Z,19.67
2019-03-23T19:23:28.509Z,18.00
2019-03-23T19:25:55.038Z,17.53
2019-03-23T19:28:24.578Z,17.07
2019-03-23T19:30:50.933Z,15.73
2019-03-23T19:33:19.677Z,15.60
2019-03-23T19:35:46.763Z,16.03
2019-03-23T19:38:13.446Z,14.03
2019-03-23T19:40:40.306Z,12.37
2019-03-23T19:43:07.473Z,11.40
2019-03-23T19:45:35.268Z,13.13
2019-03-23T19:48:02.266Z,13.03
2019-03-23T19:50:28.730Z,11.93
2019-03-23T19:52:55.212Z,10.43
2019-03-23T19:55:22.246Z,10.47
2019-03-23T19:57:48.689Z,10.50
2019-03-23T20:00:16.454Z,11.20
2019-03-23T20:02:43.231Z,13.20
2019-03-23T20:05:10.256Z,11.40
2019-03-23T20:07:39.810Z,12.80
2019-03-23T20:10:11.038Z,11.80
2019-03-23T20:12:37.879Z,11.67
2019-03-23T20:15:10.982Z,11.40
2019-03-23T20:17:37.424Z,12.00
2019-03-23T20:20:07.996Z,10.17
2019-03-23T20:22:41.237Z,10.00
2019-03-23T20:25:05.359Z,11.63
2019-03-23T20:27:37.584Z,12.67
2019-03-23T20:30:16.899Z,12.03
2019-03-23T20:32:46.068Z,11.23
2019-03-23T20:35:13.277Z,11.07
2019-03-23T20:37:39.734Z,12.47
2019-03-23T20:40:13.421Z,11.27
2019-03-23T20:42:43.827Z,12.73
2019-03-23T20:45:10.785Z,13.20
2019-03-23T20:47:39.442Z,13.60
2019-03-23T20:50:07.971Z,12.93
2019-03-23T20:52:38.673Z,13.30
2019-03-23T20:55:13.721Z,14.03
2019-03-23T20:57:43.192Z,13.30
2019-03-23T21:00:14.797Z,13.33
2019-03-23T21:02:38.726Z,14.20
2019-03-23T21:05:11.743Z,13.13
2019-03-23T21:07:38.513Z,13.47
2019-03-23T21:10:05.611Z,12.70
2019-03-23T21:12:32.295Z,13.47
2019-03-23T21:14:58.714Z,12.77
2019-03-23T21:17:25.185Z,13.20
2019-03-23T21:19:51.784Z,12.57
2019-03-23T21:22:18.707Z,12.07
2019-03-23T21:24:48.389Z,11.13
2019-03-23T21:27:14.784Z,11.23
2019-03-23T21:29:41.506Z,12.20
2019-03-23T21:32:08.262Z,11.73
2019-03-23T21:34:40.678Z,14.47
2019-03-23T21:37:07.386Z,12.90
2019-03-23T21:39:36.845Z,12.20
2019-03-23T21:42:06.797Z,13.60
2019-03-23T21:44:35.422Z,13.10
2019-03-23T21:47:04.797Z,14.30
2019-03-23T21:49:37.414Z,15.47
2019-03-23T21:52:04.314Z,14.07
2019-03-23T21:54:32.911Z,13.23
2019-03-23T21:56:59.522Z,12.27
2019-03-23T21:59:28.556Z,12.83
2019-03-23T22:01:58.110Z,13.17
2019-03-23T22:04:28.722Z,13.70
2019-03-23T22:06:57.332Z,12.97
2019-03-23T22:09:25.967Z,13.27
2019-03-23T22:11:55.187Z,12.90
2019-03-23T22:14:21.604Z,13.37
2019-03-23T22:16:48.058Z,12.20
2019-03-23T22:19:18.706Z,12.80
2019-03-23T22:21:45.722Z,12.97
2019-03-23T22:24:17.308Z,13.47
2019-03-23T22:26:44.217Z,13.37
2019-03-23T22:29:16.211Z,13.53
2019-03-23T22:31:48.211Z,13.53
2019-03-23T22:34:17.378Z,11.23
2019-03-23T22:37:06.583Z,12.20
2019-03-23T22:39:36.582Z,12.70
2019-03-23T22:42:07.134Z,13.57
2019-03-23T22:44:35.943Z,13.20
2019-03-23T22:47:07.711Z,12.97
2019-03-23T22:49:39.007Z,11.73
2019-03-23T22:52:01.625Z,10.73
2019-03-23T22:54:31.605Z,12.17
2019-03-23T22:57:02.442Z,12.37
2019-03-23T22:59:31.115Z,12.40
2019-03-23T23:01:59.577Z,13.40
2019-03-23T23:04:31.049Z,12.20
2019-03-23T23:06:58.053Z,12.37
2019-03-23T23:09:28.161Z,13.70
2019-03-23T23:12:04.735Z,14.33
2019-03-23T23:14:34.464Z,12.87
2019-03-23T23:17:02.448Z,13.07
2019-03-23T23:19:29.575Z,12.87
2019-03-23T23:22:00.431Z,12.90
2019-03-23T23:24:28.162Z,14.10
2019-03-23T23:26:56.972Z,13.90
2019-03-23T23:29:29.278Z,13.17
2019-03-23T23:32:01.625Z,14.10
2019-03-23T23:34:28.473Z,15.40
2019-03-23T23:36:55.305Z,14.70
2019-03-23T23:39:22.223Z,12.77
2019-03-23T23:41:48.958Z,13.87
2019-03-23T23:44:15.621Z,15.20
2019-03-23T23:46:42.464Z,15.17
2019-03-23T23:49:15.646Z,14.40
2019-03-23T23:51:49.743Z,15.07
2019-03-23T23:54:15.165Z,16.20
2019-03-23T23:56:38.994Z,19.87
2019-03-23T23:59:05.892Z,19.57
